sensor_id;sensor_type;location;lat;lon;timestamp;P1;durP1;ratioP1;P2;durP2;ratioP2
14858;SDS011;7521;51.700;6.874;2022-07-21T00:02:33;12.57;;;10.90;;
14858;SDS011;7521;51.700;6.874;2022-07-21T00:05:38;12.38;;;10.73;;
14858;SDS011;7521;51.700;6.874;2022-07-21T00:08:43;11.80;;;10.00;;
14858;SDS011;7521;51.700;6.874;2022-07-21T00:11:49;13.10;;;10.40;;
14858;SDS011;7521;51.700;6.874;2022-07-21T00:14:54;9.60;;;8.55;;
14858;SDS011;7521;51.700;6.874;2022-07-21T00:17:59;8.82;;;7.97;;
14858;SDS011;7521;51.700;6.874;2022-07-21T00:21:05;8.83;;;7.93;;
14858;SDS011;7521;51.700;6.874;2022-07-21T00:24:10;9.13;;;7.70;;
14858;SDS011;7521;51.700;6.874;2022-07-21T00:27:15;9.07;;;7.80;;
14858;SDS011;7521;51.700;6.874;2022-07-21T00:30:20;9.00;;;6.97;;
14858;SDS011;7521;51.700;6.874;2022-07-21T00:33:26;8.00;;;7.28;;
14858;SDS011;7521;51.700;6.874;2022-07-21T00:36:31;8.45;;;7.55;;
14858;SDS011;7521;51.700;6.874;2022-07-21T00:39:36;10.50;;;7.90;;
14858;SDS011;7521;51.700;6.874;2022-07-21T00:42:42;8.17;;;7.37;;
14858;SDS011;7521;51.700;6.874;2022-07-21T00:45:47;7.73;;;7.03;;
14858;SDS011;7521;51.700;6.874;2022-07-21T00:48:52;8.53;;;7.67;;
14858;SDS011;7521;51.700;6.874;2022-07-21T00:51:58;7.73;;;6.93;;
14858;SDS011;7521;51.700;6.874;2022-07-21T00:55:04;7.30;;;6.60;;
14858;SDS011;7521;51.700;6.874;2022-07-21T00:58:09;8.20;;;7.40;;
14858;SDS011;7521;51.700;6.874;2022-07-21T01:01:15;8.80;;;7.90;;
14858;SDS011;7521;51.700;6.874;2022-07-21T01:04:20;8.63;;;7.73;;
14858;SDS011;7521;51.700;6.874;2022-07-21T01:07:25;8.27;;;7.43;;
14858;SDS011;7521;51.700;6.874;2022-07-21T01:10:31;8.60;;;7.70;;
14858;SDS011;7521;51.700;6.874;2022-07-21T01:13:36;8.33;;;7.53;;
14858;SDS011;7521;51.700;6.874;2022-07-21T01:16:46;9.43;;;8.60;;
14858;SDS011;7521;51.700;6.874;2022-07-21T01:19:51;11.33;;;9.17;;
14858;SDS011;7521;51.700;6.874;2022-07-21T01:22:57;11.30;;;10.10;;
14858;SDS011;7521;51.700;6.874;2022-07-21T01:26:02;12.17;;;10.87;;
14858;SDS011;7521;51.700;6.874;2022-07-21T01:29:07;11.38;;;10.20;;
14858;SDS011;7521;51.700;6.874;2022-07-21T01:32:14;12.43;;;11.07;;
14858;SDS011;7521;51.700;6.874;2022-07-21T01:35:20;13.00;;;11.80;;
14858;SDS011;7521;51.700;6.874;2022-07-21T01:38:25;14.47;;;11.63;;
14858;SDS011;7521;51.700;6.874;2022-07-21T01:41:49;12.33;;;11.07;;
14858;SDS011;7521;51.700;6.874;2022-07-21T01:44:54;12.73;;;11.63;;
14858;SDS011;7521;51.700;6.874;2022-07-21T01:48:02;12.83;;;11.63;;
14858;SDS011;7521;51.700;6.874;2022-07-21T01:51:09;12.70;;;11.37;;
14858;SDS011;7521;51.700;6.874;2022-07-21T01:54:14;12.03;;;10.87;;
14858;SDS011;7521;51.700;6.874;2022-07-21T01:57:20;11.30;;;10.27;;
14858;SDS011;7521;51.700;6.874;2022-07-21T02:00:25;11.83;;;10.63;;
14858;SDS011;7521;51.700;6.874;2022-07-21T02:03:30;10.68;;;9.52;;
14858;SDS011;7521;51.700;6.874;2022-07-21T02:06:35;11.20;;;10.13;;
14858;SDS011;7521;51.700;6.874;2022-07-21T02:09:41;11.07;;;9.88;;
14858;SDS011;7521;51.700;6.874;2022-07-21T02:12:46;10.60;;;9.50;;
14858;SDS011;7521;51.700;6.874;2022-07-21T02:15:51;10.18;;;9.18;;
14858;SDS011;7521;51.700;6.874;2022-07-21T02:18:57;12.03;;;9.83;;
14858;SDS011;7521;51.700;6.874;2022-07-21T02:22:02;10.80;;;9.83;;
14858;SDS011;7521;51.700;6.874;2022-07-21T02:25:07;13.17;;;9.97;;
14858;SDS011;7521;51.700;6.874;2022-07-21T02:28:12;10.57;;;9.57;;
14858;SDS011;7521;51.700;6.874;2022-07-21T02:31:18;12.37;;;9.60;;
14858;SDS011;7521;51.700;6.874;2022-07-21T02:34:23;10.60;;;9.50;;
14858;SDS011;7521;51.700;6.874;2022-07-21T02:37:28;10.80;;;9.70;;
14858;SDS011;7521;51.700;6.874;2022-07-21T02:40:33;11.50;;;10.33;;
14858;SDS011;7521;51.700;6.874;2022-07-21T02:43:39;11.00;;;9.90;;
14858;SDS011;7521;51.700;6.874;2022-07-21T02:46:44;11.00;;;10.00;;
14858;SDS011;7521;51.700;6.874;2022-07-21T02:49:49;11.05;;;9.85;;
14858;SDS011;7521;51.700;6.874;2022-07-21T02:52:55;11.02;;;10.02;;
14858;SDS011;7521;51.700;6.874;2022-07-21T02:56:01;10.60;;;9.50;;
14858;SDS011;7521;51.700;6.874;2022-07-21T02:59:06;11.00;;;9.90;;
14858;SDS011;7521;51.700;6.874;2022-07-21T03:02:11;10.18;;;9.25;;
14858;SDS011;7521;51.700;6.874;2022-07-21T03:05:16;9.65;;;8.65;;
14858;SDS011;7521;51.700;6.874;2022-07-21T03:08:22;11.27;;;9.82;;
14858;SDS011;7521;51.700;6.874;2022-07-21T03:11:28;11.80;;;9.67;;
14858;SDS011;7521;51.700;6.874;2022-07-21T03:14:33;15.83;;;10.90;;
14858;SDS011;7521;51.700;6.874;2022-07-21T03:17:38;11.10;;;10.20;;
14858;SDS011;7521;51.700;6.874;2022-07-21T03:20:43;13.18;;;11.13;;
14858;SDS011;7521;51.700;6.874;2022-07-21T03:23:49;13.37;;;11.97;;
14858;SDS011;7521;51.700;6.874;2022-07-21T03:26:54;13.30;;;12.00;;
14858;SDS011;7521;51.700;6.874;2022-07-21T03:29:59;13.63;;;12.27;;
14858;SDS011;7521;51.700;6.874;2022-07-21T03:33:04;14.50;;;12.70;;
14858;SDS011;7521;51.700;6.874;2022-07-21T03:36:09;14.60;;;13.10;;
14858;SDS011;7521;51.700;6.874;2022-07-21T03:39:15;13.83;;;12.60;;
14858;SDS011;7521;51.700;6.874;2022-07-21T03:42:20;14.00;;;12.37;;
14858;SDS011;7521;51.700;6.874;2022-07-21T03:45:25;13.30;;;12.00;;
14858;SDS011;7521;51.700;6.874;2022-07-21T03:48:31;13.73;;;12.33;;
14858;SDS011;7521;51.700;6.874;2022-07-21T03:51:36;15.18;;;13.77;;
14858;SDS011;7521;51.700;6.874;2022-07-21T03:54:41;13.65;;;12.40;;
14858;SDS011;7521;51.700;6.874;2022-07-21T03:57:59;14.77;;;13.27;;
14858;SDS011;7521;51.700;6.874;2022-07-21T04:01:04;15.40;;;13.87;;
14858;SDS011;7521;51.700;6.874;2022-07-21T04:04:10;14.97;;;12.93;;
14858;SDS011;7521;51.700;6.874;2022-07-21T04:07:15;14.37;;;12.87;;
14858;SDS011;7521;51.700;6.874;2022-07-21T04:10:21;16.05;;;14.45;;
14858;SDS011;7521;51.700;6.874;2022-07-21T04:13:27;15.37;;;13.43;;
14858;SDS011;7521;51.700;6.874;2022-07-21T04:16:32;15.20;;;13.60;;
14858;SDS011;7521;51.700;6.874;2022-07-21T04:19:37;14.77;;;13.35;;
14858;SDS011;7521;51.700;6.874;2022-07-21T04:22:43;15.00;;;13.60;;
14858;SDS011;7521;51.700;6.874;2022-07-21T04:25:48;15.80;;;14.40;;
14858;SDS011;7521;51.700;6.874;2022-07-21T04:28:54;16.23;;;14.63;;
14858;SDS011;7521;51.700;6.874;2022-07-21T04:31:59;15.30;;;13.70;;
14858;SDS011;7521;51.700;6.874;2022-07-21T04:35:05;14.57;;;13.10;;
14858;SDS011;7521;51.700;6.874;2022-07-21T04:38:10;15.37;;;13.83;;
14858;SDS011;7521;51.700;6.874;2022-07-21T04:41:16;16.10;;;14.53;;
14858;SDS011;7521;51.700;6.874;2022-07-21T04:44:21;18.07;;;14.30;;
14858;SDS011;7521;51.700;6.874;2022-07-21T04:47:26;16.50;;;14.80;;
14858;SDS011;7521;51.700;6.874;2022-07-21T04:50:31;21.95;;;15.52;;
14858;SDS011;7521;51.700;6.874;2022-07-21T04:53:37;18.40;;;16.47;;
14858;SDS011;7521;51.700;6.874;2022-07-21T04:56:43;16.75;;;14.95;;
14858;SDS011;7521;51.700;6.874;2022-07-21T04:59:48;18.27;;;16.47;;
14858;SDS011;7521;51.700;6.874;2022-07-21T05:02:53;19.40;;;15.63;;
14858;SDS011;7521;51.700;6.874;2022-07-21T05:05:58;18.13;;;16.53;;
14858;SDS011;7521;51.700;6.874;2022-07-21T05:09:04;17.35;;;15.65;;
14858;SDS011;7521;51.700;6.874;2022-07-21T05:12:09;16.67;;;14.97;;
14858;SDS011;7521;51.700;6.874;2022-07-21T05:15:16;16.43;;;14.93;;
14858;SDS011;7521;51.700;6.874;2022-07-21T05:18:22;16.00;;;14.40;;
14858;SDS011;7521;51.700;6.874;2022-07-21T05:21:28;16.33;;;14.63;;
14858;SDS011;7521;51.700;6.874;2022-07-21T05:24:33;15.87;;;14.37;;
14858;SDS011;7521;51.700;6.874;2022-07-21T05:27:38;15.25;;;13.65;;
14858;SDS011;7521;51.700;6.874;2022-07-21T05:30:43;15.47;;;13.90;;
14858;SDS011;7521;51.700;6.874;2022-07-21T05:33:48;16.70;;;15.00;;
14858;SDS011;7521;51.700;6.874;2022-07-21T05:36:54;15.33;;;13.93;;
14858;SDS011;7521;51.700;6.874;2022-07-21T05:39:59;18.17;;;13.97;;
14858;SDS011;7521;51.700;6.874;2022-07-21T05:43:05;18.23;;;15.90;;
14858;SDS011;7521;51.700;6.874;2022-07-21T05:46:11;16.17;;;14.57;;
14858;SDS011;7521;51.700;6.874;2022-07-21T05:49:16;16.70;;;15.07;;
14858;SDS011;7521;51.700;6.874;2022-07-21T05:52:21;16.55;;;14.93;;
14858;SDS011;7521;51.700;6.874;2022-07-21T05:55:26;18.80;;;15.20;;
14858;SDS011;7521;51.700;6.874;2022-07-21T05:58:33;16.63;;;14.68;;
14858;SDS011;7521;51.700;6.874;2022-07-21T06:01:38;16.20;;;14.60;;
14858;SDS011;7521;51.700;6.874;2022-07-21T06:04:43;16.70;;;14.80;;
14858;SDS011;7521;51.700;6.874;2022-07-21T06:07:48;16.73;;;14.68;;
14858;SDS011;7521;51.700;6.874;2022-07-21T06:10:53;17.10;;;15.40;;
14858;SDS011;7521;51.700;6.874;2022-07-21T06:13:59;16.37;;;14.87;;
14858;SDS011;7521;51.700;6.874;2022-07-21T06:17:04;16.30;;;14.77;;
14858;SDS011;7521;51.700;6.874;2022-07-21T06:20:09;16.45;;;14.75;;
14858;SDS011;7521;51.700;6.874;2022-07-21T06:23:15;16.27;;;14.60;;
14858;SDS011;7521;51.700;6.874;2022-07-21T06:26:20;17.03;;;15.40;;
14858;SDS011;7521;51.700;6.874;2022-07-21T06:29:26;16.52;;;14.82;;
14858;SDS011;7521;51.700;6.874;2022-07-21T06:32:31;15.73;;;14.13;;
14858;SDS011;7521;51.700;6.874;2022-07-21T06:35:36;17.67;;;14.65;;
14858;SDS011;7521;51.700;6.874;2022-07-21T06:38:41;16.93;;;14.37;;
14858;SDS011;7521;51.700;6.874;2022-07-21T06:41:46;16.53;;;14.83;;
14858;SDS011;7521;51.700;6.874;2022-07-21T06:44:52;15.38;;;13.88;;
14858;SDS011;7521;51.700;6.874;2022-07-21T06:48:00;16.80;;;14.87;;
14858;SDS011;7521;51.700;6.874;2022-07-21T06:51:06;15.63;;;14.00;;
14858;SDS011;7521;51.700;6.874;2022-07-21T06:54:11;15.88;;;14.27;;
14858;SDS011;7521;51.700;6.874;2022-07-21T06:57:16;14.70;;;12.93;;
14858;SDS011;7521;51.700;6.874;2022-07-21T07:00:21;15.23;;;13.68;;
14858;SDS011;7521;51.700;6.874;2022-07-21T07:03:27;20.90;;;15.37;;
14858;SDS011;7521;51.700;6.874;2022-07-21T07:06:32;18.20;;;14.70;;
14858;SDS011;7521;51.700;6.874;2022-07-21T07:09:37;16.08;;;14.38;;
14858;SDS011;7521;51.700;6.874;2022-07-21T07:12:42;16.10;;;14.27;;
14858;SDS011;7521;51.700;6.874;2022-07-21T07:15:48;15.35;;;13.75;;
14858;SDS011;7521;51.700;6.874;2022-07-21T07:18:53;18.57;;;14.63;;
14858;SDS011;7521;51.700;6.874;2022-07-21T07:21:58;16.27;;;13.80;;
14858;SDS011;7521;51.700;6.874;2022-07-21T07:25:04;14.53;;;13.03;;
14858;SDS011;7521;51.700;6.874;2022-07-21T07:28:09;14.27;;;12.37;;
14858;SDS011;7521;51.700;6.874;2022-07-21T07:31:14;15.77;;;12.50;;
14858;SDS011;7521;51.700;6.874;2022-07-21T07:34:20;13.67;;;12.23;;
14858;SDS011;7521;51.700;6.874;2022-07-21T07:37:25;14.07;;;11.80;;
14858;SDS011;7521;51.700;6.874;2022-07-21T07:40:30;16.30;;;11.40;;
14858;SDS011;7521;51.700;6.874;2022-07-21T07:43:36;14.27;;;11.63;;
14858;SDS011;7521;51.700;6.874;2022-07-21T07:46:41;12.90;;;10.50;;
14858;SDS011;7521;51.700;6.874;2022-07-21T07:49:46;12.37;;;9.80;;
14858;SDS011;7521;51.700;6.874;2022-07-21T07:52:54;12.47;;;10.40;;
14858;SDS011;7521;51.700;6.874;2022-07-21T07:55:59;11.67;;;10.47;;
14858;SDS011;7521;51.700;6.874;2022-07-21T07:59:04;13.17;;;9.70;;
14858;SDS011;7521;51.700;6.874;2022-07-21T08:02:10;14.67;;;9.80;;
14858;SDS011;7521;51.700;6.874;2022-07-21T08:05:15;10.90;;;9.32;;
14858;SDS011;7521;51.700;6.874;2022-07-21T08:08:20;12.85;;;9.13;;
14858;SDS011;7521;51.700;6.874;2022-07-21T08:11:26;11.73;;;8.60;;
14858;SDS011;7521;51.700;6.874;2022-07-21T08:14:31;9.27;;;6.77;;
14858;SDS011;7521;51.700;6.874;2022-07-21T08:17:36;8.33;;;7.30;;
14858;SDS011;7521;51.700;6.874;2022-07-21T08:20:41;8.57;;;6.78;;
14858;SDS011;7521;51.700;6.874;2022-07-21T08:23:46;9.73;;;7.53;;
14858;SDS011;7521;51.700;6.874;2022-07-21T08:26:52;9.70;;;7.05;;
14858;SDS011;7521;51.700;6.874;2022-07-21T08:29:57;9.73;;;7.30;;
14858;SDS011;7521;51.700;6.874;2022-07-21T08:33:03;9.47;;;8.33;;
14858;SDS011;7521;51.700;6.874;2022-07-21T08:36:08;8.50;;;7.60;;
14858;SDS011;7521;51.700;6.874;2022-07-21T08:39:13;11.30;;;8.03;;
14858;SDS011;7521;51.700;6.874;2022-07-21T08:42:18;9.50;;;7.70;;
14858;SDS011;7521;51.700;6.874;2022-07-21T08:45:24;9.30;;;7.75;;
14858;SDS011;7521;51.700;6.874;2022-07-21T08:48:29;10.37;;;7.30;;
14858;SDS011;7521;51.700;6.874;2022-07-21T08:51:34;8.93;;;7.40;;
14858;SDS011;7521;51.700;6.874;2022-07-21T08:54:40;9.77;;;7.83;;
14858;SDS011;7521;51.700;6.874;2022-07-21T08:57:45;8.80;;;7.57;;
14858;SDS011;7521;51.700;6.874;2022-07-21T09:00:51;11.10;;;7.27;;
14858;SDS011;7521;51.700;6.874;2022-07-21T09:04:00;11.40;;;7.73;;
14858;SDS011;7521;51.700;6.874;2022-07-21T09:07:21;8.73;;;7.13;;
14858;SDS011;7521;51.700;6.874;2022-07-21T09:10:28;8.53;;;7.07;;
14858;SDS011;7521;51.700;6.874;2022-07-21T09:13:33;12.13;;;7.47;;
14858;SDS011;7521;51.700;6.874;2022-07-21T09:16:40;7.10;;;6.32;;
14858;SDS011;7521;51.700;6.874;2022-07-21T09:19:46;8.57;;;6.53;;
14858;SDS011;7521;51.700;6.874;2022-07-21T09:23:04;8.97;;;6.83;;
14858;SDS011;7521;51.700;6.874;2022-07-21T09:26:10;11.60;;;6.80;;
14858;SDS011;7521;51.700;6.874;2022-07-21T09:29:15;10.73;;;6.27;;
14858;SDS011;7521;51.700;6.874;2022-07-21T09:32:25;10.27;;;6.40;;
14858;SDS011;7521;51.700;6.874;2022-07-21T09:35:30;8.67;;;6.60;;
14858;SDS011;7521;51.700;6.874;2022-07-21T09:38:39;10.00;;;6.83;;
14858;SDS011;7521;51.700;6.874;2022-07-21T09:41:46;10.47;;;7.17;;
14858;SDS011;7521;51.700;6.874;2022-07-21T09:44:55;8.98;;;6.82;;
14858;SDS011;7521;51.700;6.874;2022-07-21T09:48:01;7.10;;;6.10;;
14858;SDS011;7521;51.700;6.874;2022-07-21T09:54:45;8.53;;;6.17;;
14858;SDS011;7521;51.700;6.874;2022-07-21T09:57:51;7.57;;;6.20;;
14858;SDS011;7521;51.700;6.874;2022-07-21T10:00:56;8.80;;;7.00;;
14858;SDS011;7521;51.700;6.874;2022-07-21T10:04:01;11.03;;;6.13;;
14858;SDS011;7521;51.700;6.874;2022-07-21T10:07:07;9.97;;;6.10;;
14858;SDS011;7521;51.700;6.874;2022-07-21T10:10:13;7.93;;;5.87;;
14858;SDS011;7521;51.700;6.874;2022-07-21T10:13:18;10.17;;;6.37;;
14858;SDS011;7521;51.700;6.874;2022-07-21T10:16:24;9.63;;;5.90;;
14858;SDS011;7521;51.700;6.874;2022-07-21T10:19:32;9.87;;;6.33;;
14858;SDS011;7521;51.700;6.874;2022-07-21T10:25:44;9.73;;;6.90;;
14858;SDS011;7521;51.700;6.874;2022-07-21T10:28:51;10.90;;;6.73;;
14858;SDS011;7521;51.700;6.874;2022-07-21T10:32:06;8.23;;;6.57;;
14858;SDS011;7521;51.700;6.874;2022-07-21T10:35:28;10.83;;;8.03;;
14858;SDS011;7521;51.700;6.874;2022-07-21T10:38:35;11.90;;;8.50;;
14858;SDS011;7521;51.700;6.874;2022-07-21T10:41:44;8.70;;;7.80;;
14858;SDS011;7521;51.700;6.874;2022-07-21T10:44:49;10.97;;;8.13;;
14858;SDS011;7521;51.700;6.874;2022-07-21T10:47:54;18.50;;;10.60;;
14858;SDS011;7521;51.700;6.874;2022-07-21T10:51:00;14.95;;;10.40;;
14858;SDS011;7521;51.700;6.874;2022-07-21T10:54:20;12.70;;;11.33;;
14858;SDS011;7521;51.700;6.874;2022-07-21T10:57:25;11.30;;;10.10;;
14858;SDS011;7521;51.700;6.874;2022-07-21T11:00:34;14.77;;;11.43;;
14858;SDS011;7521;51.700;6.874;2022-07-21T11:03:42;12.93;;;10.63;;
14858;SDS011;7521;51.700;6.874;2022-07-21T11:06:47;10.23;;;9.13;;
14858;SDS011;7521;51.700;6.874;2022-07-21T11:10:14;8.90;;;8.00;;
14858;SDS011;7521;51.700;6.874;2022-07-21T11:13:22;11.90;;;8.97;;
14858;SDS011;7521;51.700;6.874;2022-07-21T11:19:48;12.00;;;10.33;;
14858;SDS011;7521;51.700;6.874;2022-07-21T11:22:55;16.67;;;10.00;;
14858;SDS011;7521;51.700;6.874;2022-07-21T11:26:07;9.30;;;8.40;;
14858;SDS011;7521;51.700;6.874;2022-07-21T11:29:13;13.50;;;9.80;;
14858;SDS011;7521;51.700;6.874;2022-07-21T11:32:18;9.87;;;8.73;;
14858;SDS011;7521;51.700;6.874;2022-07-21T11:35:24;9.83;;;8.63;;
14858;SDS011;7521;51.700;6.874;2022-07-21T11:38:30;9.90;;;8.83;;
14858;SDS011;7521;51.700;6.874;2022-07-21T11:41:37;9.17;;;8.20;;
14858;SDS011;7521;51.700;6.874;2022-07-21T11:44:42;10.20;;;8.47;;
14858;SDS011;7521;51.700;6.874;2022-07-21T11:47:48;8.60;;;7.80;;
14858;SDS011;7521;51.700;6.874;2022-07-21T11:51:01;8.03;;;7.23;;
14858;SDS011;7521;51.700;6.874;2022-07-21T11:54:18;9.57;;;7.33;;
14858;SDS011;7521;51.700;6.874;2022-07-21T11:57:24;8.50;;;7.10;;
14858;SDS011;7521;51.700;6.874;2022-07-21T12:00:29;7.63;;;6.90;;
14858;SDS011;7521;51.700;6.874;2022-07-21T12:03:34;7.68;;;6.93;;
14858;SDS011;7521;51.700;6.874;2022-07-21T12:06:39;9.97;;;7.27;;
14858;SDS011;7521;51.700;6.874;2022-07-21T12:09:46;8.93;;;7.43;;
14858;SDS011;7521;51.700;6.874;2022-07-21T12:12:56;8.20;;;7.40;;
14858;SDS011;7521;51.700;6.874;2022-07-21T12:16:02;7.57;;;6.77;;
14858;SDS011;7521;51.700;6.874;2022-07-21T12:19:08;7.73;;;6.93;;
14858;SDS011;7521;51.700;6.874;2022-07-21T12:22:13;7.63;;;6.93;;
14858;SDS011;7521;51.700;6.874;2022-07-21T12:25:29;7.93;;;7.07;;
14858;SDS011;7521;51.700;6.874;2022-07-21T12:28:48;6.60;;;6.00;;
14858;SDS011;7521;51.700;6.874;2022-07-21T12:31:53;8.83;;;6.13;;
14858;SDS011;7521;51.700;6.874;2022-07-21T12:34:58;6.20;;;5.60;;
14858;SDS011;7521;51.700;6.874;2022-07-21T12:38:11;5.47;;;4.70;;
14858;SDS011;7521;51.700;6.874;2022-07-21T12:41:18;5.20;;;4.53;;
14858;SDS011;7521;51.700;6.874;2022-07-21T12:44:23;3.90;;;3.40;;
14858;SDS011;7521;51.700;6.874;2022-07-21T12:47:28;4.82;;;3.75;;
14858;SDS011;7521;51.700;6.874;2022-07-21T12:50:34;3.63;;;3.33;;
14858;SDS011;7521;51.700;6.874;2022-07-21T12:56:47;3.70;;;3.30;;
14858;SDS011;7521;51.700;6.874;2022-07-21T12:59:53;3.92;;;3.58;;
14858;SDS011;7521;51.700;6.874;2022-07-21T13:02:58;3.50;;;3.20;;
14858;SDS011;7521;51.700;6.874;2022-07-21T13:06:04;4.00;;;3.60;;
14858;SDS011;7521;51.700;6.874;2022-07-21T13:09:10;4.83;;;4.43;;
14858;SDS011;7521;51.700;6.874;2022-07-21T13:12:15;4.13;;;3.67;;
14858;SDS011;7521;51.700;6.874;2022-07-21T13:15:20;4.33;;;3.50;;
14858;SDS011;7521;51.700;6.874;2022-07-21T13:18:25;3.88;;;3.58;;
14858;SDS011;7521;51.700;6.874;2022-07-21T13:21:31;3.60;;;3.30;;
14858;SDS011;7521;51.700;6.874;2022-07-21T13:24:36;4.90;;;4.50;;
14858;SDS011;7521;51.700;6.874;2022-07-21T13:27:41;5.10;;;4.70;;
14858;SDS011;7521;51.700;6.874;2022-07-21T13:30:46;4.50;;;4.03;;
14858;SDS011;7521;51.700;6.874;2022-07-21T13:33:51;5.13;;;4.67;;
14858;SDS011;7521;51.700;6.874;2022-07-21T13:36:57;5.10;;;4.60;;
14858;SDS011;7521;51.700;6.874;2022-07-21T13:40:02;5.47;;;4.80;;
14858;SDS011;7521;51.700;6.874;2022-07-21T13:43:08;5.30;;;4.80;;
14858;SDS011;7521;51.700;6.874;2022-07-21T13:46:13;5.40;;;4.90;;
14858;SDS011;7521;51.700;6.874;2022-07-21T13:49:18;5.73;;;5.10;;
14858;SDS011;7521;51.700;6.874;2022-07-21T13:52:24;7.23;;;5.50;;
14858;SDS011;7521;51.700;6.874;2022-07-21T13:55:29;6.83;;;6.20;;
14858;SDS011;7521;51.700;6.874;2022-07-21T13:58:34;6.53;;;5.93;;
14858;SDS011;7521;51.700;6.874;2022-07-21T14:01:40;6.90;;;6.20;;
14858;SDS011;7521;51.700;6.874;2022-07-21T14:04:45;6.57;;;5.90;;
14858;SDS011;7521;51.700;6.874;2022-07-21T14:07:50;7.33;;;6.63;;
14858;SDS011;7521;51.700;6.874;2022-07-21T14:10:56;7.10;;;6.40;;
14858;SDS011;7521;51.700;6.874;2022-07-21T14:14:01;6.80;;;6.20;;
14858;SDS011;7521;51.700;6.874;2022-07-21T14:17:06;7.05;;;6.40;;
14858;SDS011;7521;51.700;6.874;2022-07-21T14:20:11;7.50;;;6.87;;
14858;SDS011;7521;51.700;6.874;2022-07-21T14:23:20;7.27;;;6.53;;
14858;SDS011;7521;51.700;6.874;2022-07-21T14:26:25;7.03;;;6.43;;
14858;SDS011;7521;51.700;6.874;2022-07-21T14:29:30;6.90;;;6.20;;
14858;SDS011;7521;51.700;6.874;2022-07-21T14:32:35;6.60;;;6.00;;
14858;SDS011;7521;51.700;6.874;2022-07-21T14:35:41;7.73;;;7.03;;
14858;SDS011;7521;51.700;6.874;2022-07-21T14:38:46;7.82;;;7.13;;
14858;SDS011;7521;51.700;6.874;2022-07-21T14:41:51;7.93;;;7.03;;
14858;SDS011;7521;51.700;6.874;2022-07-21T14:44:57;7.70;;;7.00;;
14858;SDS011;7521;51.700;6.874;2022-07-21T14:48:03;8.77;;;7.87;;
14858;SDS011;7521;51.700;6.874;2022-07-21T14:51:08;7.53;;;6.83;;
14858;SDS011;7521;51.700;6.874;2022-07-21T14:54:13;6.85;;;6.28;;
14858;SDS011;7521;51.700;6.874;2022-07-21T14:57:18;6.55;;;5.68;;
14858;SDS011;7521;51.700;6.874;2022-07-21T15:00:24;6.18;;;5.68;;
14858;SDS011;7521;51.700;6.874;2022-07-21T15:03:29;11.03;;;5.23;;
14858;SDS011;7521;51.700;6.874;2022-07-21T15:06:34;6.10;;;5.30;;
14858;SDS011;7521;51.700;6.874;2022-07-21T15:09:39;5.03;;;4.53;;
14858;SDS011;7521;51.700;6.874;2022-07-21T15:12:44;4.93;;;4.53;;
14858;SDS011;7521;51.700;6.874;2022-07-21T15:15:50;4.87;;;4.47;;
14858;SDS011;7521;51.700;6.874;2022-07-21T15:18:55;5.10;;;4.70;;
14858;SDS011;7521;51.700;6.874;2022-07-21T15:22:00;5.13;;;4.68;;
14858;SDS011;7521;51.700;6.874;2022-07-21T15:25:05;5.93;;;5.33;;
14858;SDS011;7521;51.700;6.874;2022-07-21T15:28:14;5.70;;;5.20;;
14858;SDS011;7521;51.700;6.874;2022-07-21T15:31:20;6.17;;;5.60;;
14858;SDS011;7521;51.700;6.874;2022-07-21T15:34:25;6.33;;;5.73;;
14858;SDS011;7521;51.700;6.874;2022-07-21T15:37:30;7.03;;;5.93;;
14858;SDS011;7521;51.700;6.874;2022-07-21T15:40:35;6.30;;;5.70;;
14858;SDS011;7521;51.700;6.874;2022-07-21T15:43:40;6.60;;;6.00;;
14858;SDS011;7521;51.700;6.874;2022-07-21T15:46:46;6.60;;;5.90;;
14858;SDS011;7521;51.700;6.874;2022-07-21T15:49:51;7.27;;;6.23;;
14858;SDS011;7521;51.700;6.874;2022-07-21T15:52:56;6.30;;;5.80;;
14858;SDS011;7521;51.700;6.874;2022-07-21T15:56:04;8.77;;;7.93;;
14858;SDS011;7521;51.700;6.874;2022-07-21T15:59:09;7.93;;;7.17;;
14858;SDS011;7521;51.700;6.874;2022-07-21T16:02:33;7.97;;;7.20;;
14858;SDS011;7521;51.700;6.874;2022-07-21T16:05:38;7.33;;;6.63;;
14858;SDS011;7521;51.700;6.874;2022-07-21T16:08:44;7.60;;;6.90;;
14858;SDS011;7521;51.700;6.874;2022-07-21T16:11:49;7.10;;;6.43;;
14858;SDS011;7521;51.700;6.874;2022-07-21T16:14:54;7.20;;;6.37;;
14858;SDS011;7521;51.700;6.874;2022-07-21T16:17:59;6.73;;;6.13;;
14858;SDS011;7521;51.700;6.874;2022-07-21T16:21:05;7.17;;;6.53;;
14858;SDS011;7521;51.700;6.874;2022-07-21T16:24:10;7.78;;;7.10;;
14858;SDS011;7521;51.700;6.874;2022-07-21T16:27:15;7.85;;;7.05;;
14858;SDS011;7521;51.700;6.874;2022-07-21T16:30:20;8.87;;;7.40;;
14858;SDS011;7521;51.700;6.874;2022-07-21T16:33:26;8.10;;;7.30;;
14858;SDS011;7521;51.700;6.874;2022-07-21T16:36:31;8.32;;;7.63;;
14858;SDS011;7521;51.700;6.874;2022-07-21T16:39:36;7.57;;;6.97;;
14858;SDS011;7521;51.700;6.874;2022-07-21T16:42:42;10.30;;;7.63;;
14858;SDS011;7521;51.700;6.874;2022-07-21T16:45:47;9.48;;;8.63;;
14858;SDS011;7521;51.700;6.874;2022-07-21T16:48:52;10.80;;;8.93;;
14858;SDS011;7521;51.700;6.874;2022-07-21T16:51:57;10.43;;;9.53;;
14858;SDS011;7521;51.700;6.874;2022-07-21T16:55:03;10.10;;;9.20;;
14858;SDS011;7521;51.700;6.874;2022-07-21T16:58:08;10.87;;;9.87;;
14858;SDS011;7521;51.700;6.874;2022-07-21T17:01:13;11.07;;;9.97;;
14858;SDS011;7521;51.700;6.874;2022-07-21T17:04:18;12.68;;;11.48;;
14858;SDS011;7521;51.700;6.874;2022-07-21T17:07:24;11.93;;;10.80;;
14858;SDS011;7521;51.700;6.874;2022-07-21T17:10:29;11.02;;;9.98;;
14858;SDS011;7521;51.700;6.874;2022-07-21T17:13:35;11.10;;;10.13;;
14858;SDS011;7521;51.700;6.874;2022-07-21T17:16:40;11.57;;;10.57;;
14858;SDS011;7521;51.700;6.874;2022-07-21T17:19:45;10.67;;;9.77;;
14858;SDS011;7521;51.700;6.874;2022-07-21T17:22:51;12.07;;;10.98;;
14858;SDS011;7521;51.700;6.874;2022-07-21T17:25:56;11.97;;;11.03;;
14858;SDS011;7521;51.700;6.874;2022-07-21T17:29:01;10.27;;;9.38;;
14858;SDS011;7521;51.700;6.874;2022-07-21T17:32:06;9.60;;;8.80;;
14858;SDS011;7521;51.700;6.874;2022-07-21T17:35:12;9.13;;;8.40;;
14858;SDS011;7521;51.700;6.874;2022-07-21T17:38:17;9.67;;;8.80;;
14858;SDS011;7521;51.700;6.874;2022-07-21T17:41:22;9.00;;;8.30;;
14858;SDS011;7521;51.700;6.874;2022-07-21T17:44:27;10.63;;;9.60;;
14858;SDS011;7521;51.700;6.874;2022-07-21T17:47:32;8.85;;;8.15;;
14858;SDS011;7521;51.700;6.874;2022-07-21T17:50:38;10.57;;;9.48;;
14858;SDS011;7521;51.700;6.874;2022-07-21T17:53:43;11.25;;;10.35;;
14858;SDS011;7521;51.700;6.874;2022-07-21T17:56:48;10.80;;;9.90;;
14858;SDS011;7521;51.700;6.874;2022-07-21T18:00:13;10.47;;;9.63;;
14858;SDS011;7521;51.700;6.874;2022-07-21T18:03:19;9.37;;;8.53;;
14858;SDS011;7521;51.700;6.874;2022-07-21T18:06:24;10.00;;;9.10;;
14858;SDS011;7521;51.700;6.874;2022-07-21T18:09:29;10.33;;;9.47;;
14858;SDS011;7521;51.700;6.874;2022-07-21T18:12:34;9.73;;;8.73;;
14858;SDS011;7521;51.700;6.874;2022-07-21T18:15:39;9.23;;;8.43;;
14858;SDS011;7521;51.700;6.874;2022-07-21T18:18:45;9.23;;;8.43;;
14858;SDS011;7521;51.700;6.874;2022-07-21T18:21:50;9.68;;;8.88;;
14858;SDS011;7521;51.700;6.874;2022-07-21T18:24:55;9.57;;;8.77;;
14858;SDS011;7521;51.700;6.874;2022-07-21T18:28:00;8.90;;;8.20;;
14858;SDS011;7521;51.700;6.874;2022-07-21T18:31:05;7.75;;;7.15;;
14858;SDS011;7521;51.700;6.874;2022-07-21T18:34:13;7.50;;;6.80;;
14858;SDS011;7521;51.700;6.874;2022-07-21T18:37:18;8.13;;;7.32;;
14858;SDS011;7521;51.700;6.874;2022-07-21T18:40:23;7.13;;;6.53;;
14858;SDS011;7521;51.700;6.874;2022-07-21T18:43:28;6.72;;;6.22;;
14858;SDS011;7521;51.700;6.874;2022-07-21T18:46:34;6.18;;;5.68;;
14858;SDS011;7521;51.700;6.874;2022-07-21T18:49:39;6.88;;;6.38;;
14858;SDS011;7521;51.700;6.874;2022-07-21T18:52:44;7.43;;;6.83;;
14858;SDS011;7521;51.700;6.874;2022-07-21T18:55:49;8.00;;;7.32;;
14858;SDS011;7521;51.700;6.874;2022-07-21T18:58:54;8.40;;;7.60;;